Search for airport 
image banner adimage banner adimage banner ad
image banner ad

6CA6 - Eagle Ridge Ranch

Located in Railroad Flat, United States

ICAO - 6CA6, IATA -

Data provided by Airmate  

General information

Coordinates: N38°19'28" W120°28'42"
Elevation is 2870 feet MSL.
Magnetic variation is 16° East
View others Airports in California

Operational data

Special qualification required
Current time UTC:
Current local time:
METAR: KCPU 240955Z AUTO 34003KT 10SM CLR 16/11 A2998 RMK AO2 T01590111
View NOTAMs / SUP AIP / TFR affecting this airport [VIEW]
Communications frequencies: [VIEW]

Runways:

RWY identifierQFULength (ft)Width (ft)SurfaceLDA (ft)
08400033OTHER
26400033OTHER

Airport contact information

Address: Railroad Flat United States

Satellite view of 6CA6